• Join FlightAware (Why Join?)
  • Login
  • US Flag 
02:30AM EDT


 

Airport Tracker/Info


-or-


 

Live Flight TrackerFlight Track Log ✈ UAL1592 ✈ 09-Apr-2012 ✈ KEWR - KMCO

Flight Track Log - Related Links

Times and Time Zones

All times are in EDT time to prevent confusion due to time zone crossing. See the UAL1592 flight status page for this flight to view local times or setup timezone preferences in your user account.

Time Position Orientation Groundspeed Altitude Reporting Facility
EDT Latitude Longitude Course Direction KTS MPH feet Rate Location/Type
07:10AM 40.6747 -74.1986 181° South  Level FlightAware Approximate
07:11AM 40.6206 -74.3294 102° East  Level FlightAware Approximate
07:12AM 40.6000 -74.2000 270° West 221 254 4,000  Level New York TRACON
07:13AM 40.6000 -74.2667 270° West 222 255 5,000 1,800 Climbing New York TRACON
07:14AM 40.6000 -74.3500 294° West 228 262 7,500 2,940 Climbing New York TRACON
07:16AM 40.6564 -74.5186 279° West 237 273 14,800 2,340 Climbing New York Center
07:17AM 40.6661 -74.6039 227° Southwest 242 278 15,400 780 Climbing New York Center
07:18AM 40.6158 -74.6750 230° Southwest 236 272 16,400 1,740 Climbing New York Center
07:19AM 40.5475 -74.7831 228° Southwest 322 371 19,000 2,700 Climbing New York Center
07:20AM 40.4794 -74.8828 230° Southwest 363 418 21,800 2,520 Climbing New York Center
07:21AM 40.4222 -74.9722 227° Southwest 372 428 24,000 2,100 Climbing New York Center
07:22AM 40.3453 -75.0792 226° Southwest 378 435 26,100 1,800 Climbing New York Center
07:23AM 40.2775 -75.1700 229° Southwest 383 441 27,600 1,680 Climbing New York Center
07:24AM 40.2022 -75.2850 226° Southwest 383 441 29,500 1,500 Climbing New York Center
07:25AM 40.1253 -75.3883 226° Southwest 388 447 30,700 1,260 Climbing New York Center
07:26AM 40.0483 -75.4919 228° Southwest 394 453 32,000 1,320 Climbing New York Center
07:27AM 39.9708 -75.6031 227° Southwest 401 461 33,400 1,380 Climbing New York Center
07:28AM 39.8956 -75.7089 232° Southwest 406 467 34,800 1,200 Climbing New York Center
07:29AM 39.8258 -75.8256 228° Southwest 406 467 35,900 1,020 Climbing New York Center
07:30AM 39.7592 -75.9233 231° Southwest 412 474 36,900 960 Climbing New York Center
07:31AM 39.6806 -76.0472 233° Southwest 414 476 37,900 540 Climbing New York Center
07:32AM 39.6150 -76.1608 230° Southwest 407 468 38,000  Climbing New York Center
07:34AM 39.5136 -76.3150 230° Southwest 402 463 38,000  Level Washington Center
07:35AM 39.4397 -76.4272 230° Southwest 407 468 38,000  Level Washington Center
07:36AM 39.3681 -76.5392 230° Southwest 407 468 38,000  Level Washington Center
07:37AM 39.2964 -76.6508 231° Southwest 407 468 38,000  Level Washington Center
07:38AM 39.2267 -76.7625 222° Southwest 407 468 38,000  Level Washington Center
07:39AM 39.1422 -76.8600 223° Southwest 407 468 38,000  Level Washington Center
07:40AM 39.0578 -76.9603 223° Southwest 407 468 38,000  Level Washington Center
07:41AM 38.9733 -77.0600 221° Southwest 412 474 38,000  Level Washington Center
07:42AM 38.8864 -77.1569 223° Southwest 417 480 38,000  Level Washington Center
07:43AM 38.8019 -77.2564 222° Southwest 422 486 38,000  Level Washington Center
07:44AM 38.7192 -77.3506 222° Southwest 416 479 38,000  Level Washington Center
07:45AM 38.6344 -77.4467 222° Southwest 416 479 38,000  Level Washington Center
07:46AM 38.5494 -77.5428 223° Southwest 410 472 38,000  Level Washington Center
07:47AM 38.4686 -77.6389 222° Southwest 410 472 38,000  Level Washington Center
07:48AM 38.3856 -77.7347 221° Southwest 405 466 38,000  Level Washington Center
07:49AM 38.2983 -77.8300 222° Southwest 405 466 38,000  Level Washington Center
07:50AM 38.2131 -77.9278 221° Southwest 405 466 38,000  Level Washington Center
07:51AM 38.1256 -78.0253 221° Southwest 417 480 38,000  Level Washington Center
07:52AM 38.0381 -78.1228 221° Southwest 423 487 38,000  Level Washington Center
07:53AM 37.9442 -78.2250 217° Southwest 416 479 38,000  Level Washington Center
07:54AM 37.8547 -78.3111 216° Southwest 416 479 38,000  Level Washington Center
07:55AM 37.7608 -78.3972 217° Southwest 416 479 38,000  Level Washington Center
07:56AM 37.6797 -78.4756 216° Southwest 416 479 38,000  Level Washington Center
07:57AM 37.5903 -78.5586 216° Southwest 416 479 38,000  Level Washington Center
07:58AM 37.4961 -78.6439 217° Southwest 416 479 38,000  Level Washington Center
07:59AM 37.4064 -78.7292 216° Southwest 416 479 38,000  Level Washington Center
08:00AM 37.3144 -78.8142 216° Southwest 416 479 38,000  Level Washington Center
08:01AM 37.2097 -78.9089 216° Southwest 416 479 38,000  Level Washington Center
08:02AM 37.1175 -78.9936 218° Southwest 416 479 38,000  Level Washington Center
08:03AM 37.0275 -79.0806 218° Southwest 416 479 38,000  Level Washington Center
08:04AM 36.9372 -79.1675 215° Southwest 416 479 38,000  Level Washington Center
08:05AM 36.8450 -79.2489 216° Southwest 416 479 38,000  Level Washington Center
08:06AM 36.7528 -79.3328 218° Southwest 416 479 38,000  Level Washington Center
08:07AM 36.6731 -79.4092 216° Southwest 416 479 38,000  Level Washington Center
08:08AM 36.5808 -79.4925 216° Southwest 416 479 38,000  Level Washington Center
08:09AM 36.4883 -79.5758 216° Southwest 416 479 38,000  Level Washington Center
08:10AM 36.3608 -79.6894 216° Southwest 403 464 38,000  Level Atlanta Center
08:11AM 36.2658 -79.7744 216° Southwest 417 480 38,000  Level Atlanta Center
08:12AM 36.1706 -79.8592 216° Southwest 422 486 38,000  Level Atlanta Center
08:13AM 36.0875 -79.9328 209° Southwest 422 486 38,000  Level Atlanta Center
08:14AM 35.9836 -80.0047 203° Southwest 422 486 38,000  Level Atlanta Center
08:15AM 35.8750 -80.0614 201° Southwest 422 486 38,000  Level Atlanta Center
08:16AM 35.7578 -80.1158 204° Southwest 436 502 38,000  Level Atlanta Center
08:17AM 35.6328 -80.1831 202° Southwest 447 514 38,000  Level Atlanta Center
08:18AM 35.5217 -80.2394 203° Southwest 447 514 38,000  Level Atlanta Center
08:19AM 35.4067 -80.2981 202° Southwest 447 514 38,000  Level Atlanta Center
08:20AM 35.3061 -80.3486 203° Southwest 447 514 38,000  Level Atlanta Center
08:21AM 35.1931 -80.4069 201° Southwest 447 514 38,000  Level Atlanta Center
08:23AM 35.0006 -80.4978 202° Southwest 438 504 38,000  Level Jacksonville Center
08:24AM 34.8869 -80.5542 202° Southwest 444 511 38,000  Level Jacksonville Center
08:25AM 34.7672 -80.6131 192° South 431 496 38,000  Level Jacksonville Center
08:26AM 34.6489 -80.6439 185° South 431 496 38,000  Level Jacksonville Center
08:27AM 34.5197 -80.6575 184° South 445 512 38,000  Level Jacksonville Center
08:28AM 34.3947 -80.6681 184° South 451 519 38,000  Level Jacksonville Center
08:29AM 34.2697 -80.6789 185° South 451 519 38,000  Level Jacksonville Center
08:30AM 34.1428 -80.6922 184° South 461 531 38,000  Level Jacksonville Center
08:31AM 34.0156 -80.7028 185° South 461 531 38,000  Level Jacksonville Center
08:32AM 33.8864 -80.7161 185° South 461 531 38,000  Level Jacksonville Center
08:33AM 33.7594 -80.7292 183° South 461 531 38,000  Level Jacksonville Center
08:34AM 33.6406 -80.7372 185° South 461 531 38,000  Level Jacksonville Center
08:35AM 33.5136 -80.7503 185° South 466 536 38,000  Level Jacksonville Center
08:36AM 33.3822 -80.7633 188° South 466 536 38,000  Level Jacksonville Center
08:37AM 33.2553 -80.7836 187° South 466 536 38,000  Level Jacksonville Center
08:38AM 33.1261 -80.8017 188° South 466 536 38,000  Level Jacksonville Center
08:39AM 32.9972 -80.8219 187° South 466 536 38,000  Level Jacksonville Center
08:40AM 32.8700 -80.8397 187° South 466 536 38,000  Level Jacksonville Center
08:41AM 32.7431 -80.8575 186° South 466 536 38,000  Level Jacksonville Center
08:42AM 32.6158 -80.8725 188° South 466 536 38,000  Level Jacksonville Center
08:43AM 32.4911 -80.8928 187° South 461 531 38,000  Level Jacksonville Center
08:44AM 32.3556 -80.9128 186° South 448 516 38,000  Level Jacksonville Center
08:45AM 32.2453 -80.9275 187° South 448 516 38,000  Level Jacksonville Center
08:46AM 32.1078 -80.9475 187° South 448 516 38,000 -480 Level Jacksonville Center
08:47AM 31.9806 -80.9650 187° South 461 531 37,100 -900 Descending Jacksonville Center
08:48AM 31.8683 -80.9819 187° South 461 531 36,300 -660 Descending Jacksonville Center
08:49AM 31.7286 -81.0019 186° South 466 536 35,800 -1,020 Descending Jacksonville Center
08:50AM 31.6161 -81.0164 182° South 466 536 34,300 -1,680 Descending Jacksonville Center
08:51AM 31.4764 -81.0217 182° South 466 536 32,500 -1,200 Descending Jacksonville Center
08:52AM 31.3447 -81.0269 181° South 466 536 32,000 -300 Descending Jacksonville Center
08:53AM 31.2236 -81.0292 183° South 473 544 32,000 -60 Level Jacksonville Center
08:54AM 31.0903 -81.0367 182° South 478 550 31,900 -60 Descending Jacksonville Center
08:55AM 30.9608 -81.0417 183° South 478 550 31,900  Level Jacksonville Center
08:56AM 30.8336 -81.0489 182° South 473 544 32,000  Climbing Jacksonville Center
08:57AM 30.7022 -81.0539 182° South 473 544 31,900  Descending Jacksonville Center
08:58AM 30.5686 -81.0589 183° South 478 550 32,000  Climbing Jacksonville Center
08:59AM 30.4392 -81.0664 182° South 473 544 32,000 -120 Level Jacksonville Center
09:00AM 30.3078 -81.0711 183° South 473 544 31,800 -600 Descending Jacksonville Center
09:01AM 30.1764 -81.0786 182° South 473 544 30,800 -1,020 Descending Jacksonville Center
09:02AM 30.0428 -81.0833 183° South 473 544 29,800 -960 Descending Jacksonville Center
09:03AM 29.9114 -81.0906 182° South 478 550 28,900 -1,680 Descending Jacksonville Center
09:04AM 29.7800 -81.0956 182° South 478 550 26,500 -2,580 Descending Jacksonville Center
09:05AM 29.6547 -81.1000 183° South 466 536 23,800 -2,700 Descending Jacksonville Center
09:06AM 29.5317 -81.1072 181° South 453 521 21,200 -2,700 Descending Jacksonville Center
09:07AM 29.4064 -81.1094 183° South 418 481 18,500 -2,520 Descending Jacksonville Center
09:08AM 29.2917 -81.1164 174° South 412 474 16,200 -2,400 Descending Jacksonville Center
09:09AM 29.1831 -81.1039 176° South 401 461 13,700 -1,920 Descending Jacksonville Center
09:10AM 29.0764 -81.0964 174° South 389 448 12,400 -1,020 Descending Jacksonville Center
09:11AM 28.9886 -81.0861 171° South 334 384 11,700 -1,200 Descending Jacksonville Center
09:12AM 28.9050 -81.0711 187° South 313 360 10,000 -1,200 Descending Jacksonville Center
09:13AM 28.8281 -81.0819 225° Southwest 302 348 9,400 -1,020 Descending Jacksonville Center
09:14AM 28.7833 -81.1333 221° Southwest 254 292 8,100 -1,500 Descending Orlando TRACON
09:15AM 28.7250 -81.1903 214° Southwest 255 293 6,400 -1,740 Descending Jacksonville Center
09:16AM 28.6692 -81.2339 217° Southwest 255 293 4,600 -1,740 Descending Jacksonville Center
09:17AM 28.6178 -81.2772 217° Southwest 249 287 3,000 -1,620 Descending Jacksonville Center